sensor_id;sensor_type;location;lat;lon;timestamp;temperature;humidity
9668;DHT22;4872;48.316;10.650;2024-01-25T05:07:02;7.70;99.90
9668;DHT22;4872;48.316;10.650;2024-01-25T05:09:29;7.70;99.90
9668;DHT22;4872;48.316;10.650;2024-01-25T05:11:56;7.70;99.90
9668;DHT22;4872;48.316;10.650;2024-01-25T05:14:24;7.70;99.90
9668;DHT22;4872;48.316;10.650;2024-01-25T05:16:51;7.70;99.90
9668;DHT22;4872;48.316;10.650;2024-01-25T05:19:17;7.70;99.90
9668;DHT22;4872;48.316;10.650;2024-01-25T05:21:44;7.70;99.90
9668;DHT22;4872;48.316;10.650;2024-01-25T05:24:12;7.70;99.90
9668;DHT22;4872;48.316;10.650;2024-01-25T05:26:39;7.70;99.90
9668;DHT22;4872;48.316;10.650;2024-01-25T05:29:06;7.70;99.90
9668;DHT22;4872;48.316;10.650;2024-01-25T05:31:32;7.70;99.90
9668;DHT22;4872;48.316;10.650;2024-01-25T05:33:59;7.60;99.90
9668;DHT22;4872;48.316;10.650;2024-01-25T05:36:26;7.70;99.90
9668;DHT22;4872;48.316;10.650;2024-01-25T05:38:53;7.70;99.90
9668;DHT22;4872;48.316;10.650;2024-01-25T05:41:21;7.70;99.90
9668;DHT22;4872;48.316;10.650;2024-01-25T05:43:48;7.80;99.90
9668;DHT22;4872;48.316;10.650;2024-01-25T05:46:14;7.60;99.90
9668;DHT22;4872;48.316;10.650;2024-01-25T05:48:41;7.60;99.90
9668;DHT22;4872;48.316;10.650;2024-01-25T05:51:08;7.70;99.90
9668;DHT22;4872;48.316;10.650;2024-01-25T05:53:35;7.70;99.90
9668;DHT22;4872;48.316;10.650;2024-01-25T05:56:02;7.70;99.90
9668;DHT22;4872;48.316;10.650;2024-01-25T05:58:31;7.70;99.90
9668;DHT22;4872;48.316;10.650;2024-01-25T06:00:58;7.60;99.90
9668;DHT22;4872;48.316;10.650;2024-01-25T06:03:25;7.60;99.90
9668;DHT22;4872;48.316;10.650;2024-01-25T06:05:52;7.60;99.90
9668;DHT22;4872;48.316;10.650;2024-01-25T06:08:18;7.60;99.90
9668;DHT22;4872;48.316;10.650;2024-01-25T06:10:45;7.60;99.90
9668;DHT22;4872;48.316;10.650;2024-01-25T06:13:12;7.50;99.90
9668;DHT22;4872;48.316;10.650;2024-01-25T06:15:40;7.50;99.90
9668;DHT22;4872;48.316;10.650;2024-01-25T06:18:07;7.50;99.90
9668;DHT22;4872;48.316;10.650;2024-01-25T06:20:34;7.50;99.90
9668;DHT22;4872;48.316;10.650;2024-01-25T06:23:00;7.50;99.90
9668;DHT22;4872;48.316;10.650;2024-01-25T06:25:27;7.50;99.90
9668;DHT22;4872;48.316;10.650;2024-01-25T06:27:56;7.50;99.90
9668;DHT22;4872;48.316;10.650;2024-01-25T06:30:23;7.50;99.90
9668;DHT22;4872;48.316;10.650;2024-01-25T06:32:52;7.50;99.90
9668;DHT22;4872;48.316;10.650;2024-01-25T06:35:19;7.40;99.90
9668;DHT22;4872;48.316;10.650;2024-01-25T06:37:45;7.50;99.90
9668;DHT22;4872;48.316;10.650;2024-01-25T06:40:12;7.50;99.90
9668;DHT22;4872;48.316;10.650;2024-01-25T06:42:39;7.50;99.90
9668;DHT22;4872;48.316;10.650;2024-01-25T06:45:07;7.40;99.90
9668;DHT22;4872;48.316;10.650;2024-01-25T06:47:35;7.30;99.90
9668;DHT22;4872;48.316;10.650;2024-01-25T06:50:04;7.30;99.90
9668;DHT22;4872;48.316;10.650;2024-01-25T06:52:33;7.20;99.90
9668;DHT22;4872;48.316;10.650;2024-01-25T06:55:00;7.20;99.90
9668;DHT22;4872;48.316;10.650;2024-01-25T06:57:27;7.20;99.90
9668;DHT22;4872;48.316;10.650;2024-01-25T06:59:54;7.20;99.90
9668;DHT22;4872;48.316;10.650;2024-01-25T07:02:20;7.20;99.90
9668;DHT22;4872;48.316;10.650;2024-01-25T07:04:47;7.30;99.90
9668;DHT22;4872;48.316;10.650;2024-01-25T07:07:15;7.20;99.90
9668;DHT22;4872;48.316;10.650;2024-01-25T07:09:42;7.20;99.90
9668;DHT22;4872;48.316;10.650;2024-01-25T07:12:09;7.30;99.90
9668;DHT22;4872;48.316;10.650;2024-01-25T07:14:36;7.20;99.90
9668;DHT22;4872;48.316;10.650;2024-01-25T07:17:03;7.10;99.90
9668;DHT22;4872;48.316;10.650;2024-01-25T07:19:30;7.10;99.90
9668;DHT22;4872;48.316;10.650;2024-01-25T07:21:56;6.90;99.90
9668;DHT22;4872;48.316;10.650;2024-01-25T07:24:24;7.00;99.90
9668;DHT22;4872;48.316;10.650;2024-01-25T07:26:52;7.00;99.90
9668;DHT22;4872;48.316;10.650;2024-01-25T07:29:19;7.00;99.90
9668;DHT22;4872;48.316;10.650;2024-01-25T07:31:55;7.00;99.90
9668;DHT22;4872;48.316;10.650;2024-01-25T07:34:50;7.00;99.90
9668;DHT22;4872;48.316;10.650;2024-01-25T07:37:17;7.20;99.90
9668;DHT22;4872;48.316;10.650;2024-01-25T07:40:27;7.20;99.90
9668;DHT22;4872;48.316;10.650;2024-01-25T07:42:53;7.40;99.90
9668;DHT22;4872;48.316;10.650;2024-01-25T07:45:20;7.40;99.90
9668;DHT22;4872;48.316;10.650;2024-01-25T07:47:47;7.40;99.90
9668;DHT22;4872;48.316;10.650;2024-01-25T07:50:14;7.40;99.90
9668;DHT22;4872;48.316;10.650;2024-01-25T07:52:41;7.30;99.90
9668;DHT22;4872;48.316;10.650;2024-01-25T07:55:08;7.40;99.90
9668;DHT22;4872;48.316;10.650;2024-01-25T07:57:36;7.50;99.90
9668;DHT22;4872;48.316;10.650;2024-01-25T08:00:04;7.70;99.90
9668;DHT22;4872;48.316;10.650;2024-01-25T08:02:32;7.80;99.90
9668;DHT22;4872;48.316;10.650;2024-01-25T08:04:59;8.10;99.90
9668;DHT22;4872;48.316;10.650;2024-01-25T08:07:26;8.20;99.90
9668;DHT22;4872;48.316;10.650;2024-01-25T08:09:53;8.30;99.90
9668;DHT22;4872;48.316;10.650;2024-01-25T08:12:23;8.20;99.90
9668;DHT22;4872;48.316;10.650;2024-01-25T08:14:51;8.20;99.90
9668;DHT22;4872;48.316;10.650;2024-01-25T08:17:18;8.20;99.90
9668;DHT22;4872;48.316;10.650;2024-01-25T08:19:45;8.20;99.90
9668;DHT22;4872;48.316;10.650;2024-01-25T08:22:12;8.10;99.90
9668;DHT22;4872;48.316;10.650;2024-01-25T08:24:39;8.20;99.90
9668;DHT22;4872;48.316;10.650;2024-01-25T08:27:06;8.20;99.90
9668;DHT22;4872;48.316;10.650;2024-01-25T08:29:34;8.20;99.90
9668;DHT22;4872;48.316;10.650;2024-01-25T08:32:03;8.10;99.90
9668;DHT22;4872;48.316;10.650;2024-01-25T08:34:30;8.20;99.90
9668;DHT22;4872;48.316;10.650;2024-01-25T08:36:56;8.20;99.90
9668;DHT22;4872;48.316;10.650;2024-01-25T08:39:23;8.30;99.90
9668;DHT22;4872;48.316;10.650;2024-01-25T08:41:50;8.40;99.90
9668;DHT22;4872;48.316;10.650;2024-01-25T08:44:16;8.60;99.90
9668;DHT22;4872;48.316;10.650;2024-01-25T08:46:43;8.70;99.90
9668;DHT22;4872;48.316;10.650;2024-01-25T08:49:11;8.80;99.90
9668;DHT22;4872;48.316;10.650;2024-01-25T08:51:38;8.80;99.90
9668;DHT22;4872;48.316;10.650;2024-01-25T08:54:05;8.90;99.90
9668;DHT22;4872;48.316;10.650;2024-01-25T08:56:32;8.80;99.90
9668;DHT22;4872;48.316;10.650;2024-01-25T08:58:58;8.70;99.90
9668;DHT22;4872;48.316;10.650;2024-01-25T09:01:25;8.80;99.90
9668;DHT22;4872;48.316;10.650;2024-01-25T09:03:52;8.80;99.90
9668;DHT22;4872;48.316;10.650;2024-01-25T09:06:20;9.10;99.90
9668;DHT22;4872;48.316;10.650;2024-01-25T09:08:47;9.20;99.90
9668;DHT22;4872;48.316;10.650;2024-01-25T09:11:14;9.10;99.70
9668;DHT22;4872;48.316;10.650;2024-01-25T09:13:41;9.20;99.80
9668;DHT22;4872;48.316;10.650;2024-01-25T09:16:10;9.30;99.70
9668;DHT22;4872;48.316;10.650;2024-01-25T09:18:37;9.40;99.20
9668;DHT22;4872;48.316;10.650;2024-01-25T09:21:04;9.70;99.00
9668;DHT22;4872;48.316;10.650;2024-01-25T09:23:32;10.00;98.10
9668;DHT22;4872;48.316;10.650;2024-01-25T09:25:59;10.20;97.40
9668;DHT22;4872;48.316;10.650;2024-01-25T09:28:26;10.70;97.30
9668;DHT22;4872;48.316;10.650;2024-01-25T09:30:52;11.00;96.30
9668;DHT22;4872;48.316;10.650;2024-01-25T09:33:19;11.00;95.30
9668;DHT22;4872;48.316;10.650;2024-01-25T09:35:46;11.00;95.20
9668;DHT22;4872;48.316;10.650;2024-01-25T09:38:13;11.10;94.50
9668;DHT22;4872;48.316;10.650;2024-01-25T09:40:41;11.00;93.70
9668;DHT22;4872;48.316;10.650;2024-01-25T09:43:08;11.30;94.10
9668;DHT22;4872;48.316;10.650;2024-01-25T09:45:35;11.60;93.20
9668;DHT22;4872;48.316;10.650;2024-01-25T09:48:02;11.90;93.20
9668;DHT22;4872;48.316;10.650;2024-01-25T09:50:30;12.00;93.00
9668;DHT22;4872;48.316;10.650;2024-01-25T09:52:59;12.60;92.60
9668;DHT22;4872;48.316;10.650;2024-01-25T09:55:27;12.50;91.80
9668;DHT22;4872;48.316;10.650;2024-01-25T09:57:55;12.50;90.90
9668;DHT22;4872;48.316;10.650;2024-01-25T10:00:22;12.40;90.60
9668;DHT22;4872;48.316;10.650;2024-01-25T10:02:50;12.20;90.40
9668;DHT22;4872;48.316;10.650;2024-01-25T10:05:17;12.20;90.20
9668;DHT22;4872;48.316;10.650;2024-01-25T10:07:44;12.00;89.30
9668;DHT22;4872;48.316;10.650;2024-01-25T10:10:12;12.10;90.00
9668;DHT22;4872;48.316;10.650;2024-01-25T10:12:41;12.40;90.30
9668;DHT22;4872;48.316;10.650;2024-01-25T10:15:10;12.30;88.60
9668;DHT22;4872;48.316;10.650;2024-01-25T10:17:37;12.40;87.30
9668;DHT22;4872;48.316;10.650;2024-01-25T10:20:05;12.60;85.50
9668;DHT22;4872;48.316;10.650;2024-01-25T10:22:37;12.70;84.40
9668;DHT22;4872;48.316;10.650;2024-01-25T10:25:13;12.70;85.40
9668;DHT22;4872;48.316;10.650;2024-01-25T10:27:43;12.30;84.50
9668;DHT22;4872;48.316;10.650;2024-01-25T10:33:51;12.40;84.90
9668;DHT22;4872;48.316;10.650;2024-01-25T10:36:20;12.70;83.80
9668;DHT22;4872;48.316;10.650;2024-01-25T10:38:51;12.80;83.20
9668;DHT22;4872;48.316;10.650;2024-01-25T10:41:20;13.10;82.70
9668;DHT22;4872;48.316;10.650;2024-01-25T10:43:47;13.30;81.80
9668;DHT22;4872;48.316;10.650;2024-01-25T10:46:13;13.60;80.10
9668;DHT22;4872;48.316;10.650;2024-01-25T10:48:41;13.20;80.70
9668;DHT22;4872;48.316;10.650;2024-01-25T10:51:10;13.30;81.40
9668;DHT22;4872;48.316;10.650;2024-01-25T10:53:39;13.40;81.30
9668;DHT22;4872;48.316;10.650;2024-01-25T10:56:06;13.70;82.00
9668;DHT22;4872;48.316;10.650;2024-01-25T10:58:33;14.00;80.70
9668;DHT22;4872;48.316;10.650;2024-01-25T11:01:02;14.00;79.80
9668;DHT22;4872;48.316;10.650;2024-01-25T11:03:30;14.30;79.50
9668;DHT22;4872;48.316;10.650;2024-01-25T11:06:06;14.20;78.20
9668;DHT22;4872;48.316;10.650;2024-01-25T11:08:35;14.20;77.40
9668;DHT22;4872;48.316;10.650;2024-01-25T11:11:05;14.30;78.00
9668;DHT22;4872;48.316;10.650;2024-01-25T11:13:33;14.60;76.70
9668;DHT22;4872;48.316;10.650;2024-01-25T11:16:32;14.40;77.10
9668;DHT22;4872;48.316;10.650;2024-01-25T11:19:07;14.50;76.00
9668;DHT22;4872;48.316;10.650;2024-01-25T11:21:40;14.60;76.00
9668;DHT22;4872;48.316;10.650;2024-01-25T11:24:13;14.70;76.30
9668;DHT22;4872;48.316;10.650;2024-01-25T11:26:42;14.40;77.20
9668;DHT22;4872;48.316;10.650;2024-01-25T11:29:09;14.20;77.30
9668;DHT22;4872;48.316;10.650;2024-01-25T11:31:35;14.50;76.10
9668;DHT22;4872;48.316;10.650;2024-01-25T11:34:02;14.20;76.80
9668;DHT22;4872;48.316;10.650;2024-01-25T11:36:29;13.50;76.00
9668;DHT22;4872;48.316;10.650;2024-01-25T11:38:56;13.10;77.30
9668;DHT22;4872;48.316;10.650;2024-01-25T11:41:25;12.70;78.30
9668;DHT22;4872;48.316;10.650;2024-01-25T11:43:52;12.50;78.90
9668;DHT22;4872;48.316;10.650;2024-01-25T11:46:19;12.70;78.70
9668;DHT22;4872;48.316;10.650;2024-01-25T11:48:46;12.90;79.10
9668;DHT22;4872;48.316;10.650;2024-01-25T11:51:13;13.10;79.60
9668;DHT22;4872;48.316;10.650;2024-01-25T11:53:40;13.80;79.10
9668;DHT22;4872;48.316;10.650;2024-01-25T11:56:08;14.20;78.50
9668;DHT22;4872;48.316;10.650;2024-01-25T11:58:38;14.50;77.70
9668;DHT22;4872;48.316;10.650;2024-01-25T12:01:06;15.00;77.80
9668;DHT22;4872;48.316;10.650;2024-01-25T12:03:33;14.50;77.80
9668;DHT22;4872;48.316;10.650;2024-01-25T12:06:01;14.50;77.90
9668;DHT22;4872;48.316;10.650;2024-01-25T12:08:31;14.20;78.00
9668;DHT22;4872;48.316;10.650;2024-01-25T12:11:05;13.90;78.30
9668;DHT22;4872;48.316;10.650;2024-01-25T12:13:33;13.40;78.00
9668;DHT22;4872;48.316;10.650;2024-01-25T12:16:03;13.30;78.30
9668;DHT22;4872;48.316;10.650;2024-01-25T12:18:30;13.30;79.30
9668;DHT22;4872;48.316;10.650;2024-01-25T12:20:58;14.20;78.80
9668;DHT22;4872;48.316;10.650;2024-01-25T12:23:31;15.50;76.70
9668;DHT22;4872;48.316;10.650;2024-01-25T12:25:59;16.60;75.10
9668;DHT22;4872;48.316;10.650;2024-01-25T12:28:26;15.70;74.90
9668;DHT22;4872;48.316;10.650;2024-01-25T12:30:53;15.20;75.00
9668;DHT22;4872;48.316;10.650;2024-01-25T12:33:21;14.10;75.30
9668;DHT22;4872;48.316;10.650;2024-01-25T12:35:48;13.50;76.30
9668;DHT22;4872;48.316;10.650;2024-01-25T12:38:15;12.70;77.80
9668;DHT22;4872;48.316;10.650;2024-01-25T12:40:42;12.90;77.90
9668;DHT22;4872;48.316;10.650;2024-01-25T12:43:08;12.30;78.30
9668;DHT22;4872;48.316;10.650;2024-01-25T12:45:35;12.10;79.00
9668;DHT22;4872;48.316;10.650;2024-01-25T12:48:02;11.90;80.10
9668;DHT22;4872;48.316;10.650;2024-01-25T12:50:30;11.60;79.60
9668;DHT22;4872;48.316;10.650;2024-01-25T12:52:57;11.70;80.60
9668;DHT22;4872;48.316;10.650;2024-01-25T12:55:24;12.20;80.40
9668;DHT22;4872;48.316;10.650;2024-01-25T12:57:51;12.20;80.10
9668;DHT22;4872;48.316;10.650;2024-01-25T13:00:18;12.30;79.30
9668;DHT22;4872;48.316;10.650;2024-01-25T13:02:45;12.20;80.60
9668;DHT22;4872;48.316;10.650;2024-01-25T13:05:14;12.10;80.00
9668;DHT22;4872;48.316;10.650;2024-01-25T13:07:42;12.20;79.70
9668;DHT22;4872;48.316;10.650;2024-01-25T13:10:09;12.30;78.80
9668;DHT22;4872;48.316;10.650;2024-01-25T13:12:36;12.20;79.20
9668;DHT22;4872;48.316;10.650;2024-01-25T13:15:04;12.00;78.50
9668;DHT22;4872;48.316;10.650;2024-01-25T13:17:31;11.80;78.90
9668;DHT22;4872;48.316;10.650;2024-01-25T13:19:58;11.40;79.20
9668;DHT22;4872;48.316;10.650;2024-01-25T13:22:25;11.20;80.00
9668;DHT22;4872;48.316;10.650;2024-01-25T13:24:53;11.30;79.90
9668;DHT22;4872;48.316;10.650;2024-01-25T13:30:58;11.20;79.40
9668;DHT22;4872;48.316;10.650;2024-01-25T13:33:25;11.20;78.50
9668;DHT22;4872;48.316;10.650;2024-01-25T13:35:52;11.00;79.30
9668;DHT22;4872;48.316;10.650;2024-01-25T13:38:18;11.20;79.70
9668;DHT22;4872;48.316;10.650;2024-01-25T13:40:46;11.30;79.30
9668;DHT22;4872;48.316;10.650;2024-01-25T13:43:13;11.20;79.90
9668;DHT22;4872;48.316;10.650;2024-01-25T13:45:40;11.10;79.60
9668;DHT22;4872;48.316;10.650;2024-01-25T13:48:07;11.20;80.20
9668;DHT22;4872;48.316;10.650;2024-01-25T13:50:33;11.30;81.00
9668;DHT22;4872;48.316;10.650;2024-01-25T13:53:00;11.20;80.20
9668;DHT22;4872;48.316;10.650;2024-01-25T13:55:27;11.20;81.20
9668;DHT22;4872;48.316;10.650;2024-01-25T13:57:55;11.20;80.90
9668;DHT22;4872;48.316;10.650;2024-01-25T14:00:22;11.40;81.30
9668;DHT22;4872;48.316;10.650;2024-01-25T14:02:49;11.80;80.70
9668;DHT22;4872;48.316;10.650;2024-01-25T14:05:15;11.70;80.20
9668;DHT22;4872;48.316;10.650;2024-01-25T14:07:42;11.80;80.20
9668;DHT22;4872;48.316;10.650;2024-01-25T14:10:09;11.90;80.50
9668;DHT22;4872;48.316;10.650;2024-01-25T14:12:36;12.00;80.00
9668;DHT22;4872;48.316;10.650;2024-01-25T14:18:23;12.10;80.20
9668;DHT22;4872;48.316;10.650;2024-01-25T14:20:50;11.80;80.30
9668;DHT22;4872;48.316;10.650;2024-01-25T14:23:17;11.70;80.60
9668;DHT22;4872;48.316;10.650;2024-01-25T14:25:43;11.60;81.50
9668;DHT22;4872;48.316;10.650;2024-01-25T14:28:10;11.70;81.40
9668;DHT22;4872;48.316;10.650;2024-01-25T14:30:37;11.80;81.50
9668;DHT22;4872;48.316;10.650;2024-01-25T14:33:04;11.80;81.90
9668;DHT22;4872;48.316;10.650;2024-01-25T14:35:32;11.90;81.20
9668;DHT22;4872;48.316;10.650;2024-01-25T14:37:59;12.10;81.10
9668;DHT22;4872;48.316;10.650;2024-01-25T14:40:25;12.20;81.10
9668;DHT22;4872;48.316;10.650;2024-01-25T14:42:52;12.30;81.70
9668;DHT22;4872;48.316;10.650;2024-01-25T14:45:19;12.10;81.80
9668;DHT22;4872;48.316;10.650;2024-01-25T14:47:56;12.30;82.10
9668;DHT22;4872;48.316;10.650;2024-01-25T14:50:23;12.30;81.00
9668;DHT22;4872;48.316;10.650;2024-01-25T14:52:51;12.30;80.70
9668;DHT22;4872;48.316;10.650;2024-01-25T14:55:17;12.30;80.20
9668;DHT22;4872;48.316;10.650;2024-01-25T14:57:44;12.20;79.80
9668;DHT22;4872;48.316;10.650;2024-01-25T15:00:12;12.20;80.00
9668;DHT22;4872;48.316;10.650;2024-01-25T15:02:44;12.10;80.20
9668;DHT22;4872;48.316;10.650;2024-01-25T15:05:11;11.90;80.40
9668;DHT22;4872;48.316;10.650;2024-01-25T15:07:38;11.90;80.80
9668;DHT22;4872;48.316;10.650;2024-01-25T15:10:07;11.80;81.20
9668;DHT22;4872;48.316;10.650;2024-01-25T15:12:34;11.70;81.80
9668;DHT22;4872;48.316;10.650;2024-01-25T15:15:01;11.60;81.60
9668;DHT22;4872;48.316;10.650;2024-01-25T15:17:28;11.60;82.20
9668;DHT22;4872;48.316;10.650;2024-01-25T15:19:54;11.70;82.50
9668;DHT22;4872;48.316;10.650;2024-01-25T15:22:21;11.30;82.50
9668;DHT22;4872;48.316;10.650;2024-01-25T15:24:51;11.40;83.40
9668;DHT22;4872;48.316;10.650;2024-01-25T15:27:19;11.30;83.50
9668;DHT22;4872;48.316;10.650;2024-01-25T15:29:46;11.20;84.10
9668;DHT22;4872;48.316;10.650;2024-01-25T15:32:12;11.20;84.20
9668;DHT22;4872;48.316;10.650;2024-01-25T15:34:39;11.00;84.20
9668;DHT22;4872;48.316;10.650;2024-01-25T15:37:06;11.00;84.70
9668;DHT22;4872;48.316;10.650;2024-01-25T15:39:33;10.90;84.70
9668;DHT22;4872;48.316;10.650;2024-01-25T15:41:59;10.90;84.70
9668;DHT22;4872;48.316;10.650;2024-01-25T15:44:27;11.00;84.90
9668;DHT22;4872;48.316;10.650;2024-01-25T15:46:54;10.70;84.50
9668;DHT22;4872;48.316;10.650;2024-01-25T15:49:21;10.50;84.90
9668;DHT22;4872;48.316;10.650;2024-01-25T15:51:48;10.40;85.10
9668;DHT22;4872;48.316;10.650;2024-01-25T15:54:15;10.10;85.50
9668;DHT22;4872;48.316;10.650;2024-01-25T15:56:42;10.10;86.20
9668;DHT22;4872;48.316;10.650;2024-01-25T15:59:09;9.80;87.80
9668;DHT22;4872;48.316;10.650;2024-01-25T16:01:37;9.60;87.90
9668;DHT22;4872;48.316;10.650;2024-01-25T16:04:04;9.60;87.70
9668;DHT22;4872;48.316;10.650;2024-01-25T16:06:31;9.60;87.70
9668;DHT22;4872;48.316;10.650;2024-01-25T16:09:00;9.50;87.80
9668;DHT22;4872;48.316;10.650;2024-01-25T16:11:29;9.60;87.60
9668;DHT22;4872;48.316;10.650;2024-01-25T16:13:55;9.60;87.90
9668;DHT22;4872;48.316;10.650;2024-01-25T16:16:22;9.50;87.70
9668;DHT22;4872;48.316;10.650;2024-01-25T16:18:50;9.70;87.90
9668;DHT22;4872;48.316;10.650;2024-01-25T16:21:17;9.40;87.80
9668;DHT22;4872;48.316;10.650;2024-01-25T16:23:44;9.40;87.80
9668;DHT22;4872;48.316;10.650;2024-01-25T16:26:50;9.40;87.90
9668;DHT22;4872;48.316;10.650;2024-01-25T16:29:17;9.40;87.60
9668;DHT22;4872;48.316;10.650;2024-01-25T16:31:43;9.40;87.80
9668;DHT22;4872;48.316;10.650;2024-01-25T16:34:41;9.30;87.60
9668;DHT22;4872;48.316;10.650;2024-01-25T16:37:08;9.20;87.50
9668;DHT22;4872;48.316;10.650;2024-01-25T16:42:55;9.00;88.00
9668;DHT22;4872;48.316;10.650;2024-01-25T16:45:22;9.00;88.10
9668;DHT22;4872;48.316;10.650;2024-01-25T16:47:59;8.90;88.20
9668;DHT22;4872;48.316;10.650;2024-01-25T16:50:27;8.90;88.20
9668;DHT22;4872;48.316;10.650;2024-01-25T16:52:54;9.00;88.60
9668;DHT22;4872;48.316;10.650;2024-01-25T16:55:22;8.80;88.40
9668;DHT22;4872;48.316;10.650;2024-01-25T16:57:48;8.90;88.60
9668;DHT22;4872;48.316;10.650;2024-01-25T17:00:16;9.00;88.80
9668;DHT22;4872;48.316;10.650;2024-01-25T17:02:43;8.80;88.80
9668;DHT22;4872;48.316;10.650;2024-01-25T17:05:10;8.80;89.00
9668;DHT22;4872;48.316;10.650;2024-01-25T17:07:38;8.80;89.30
9668;DHT22;4872;48.316;10.650;2024-01-25T17:10:06;8.80;89.80
9668;DHT22;4872;48.316;10.650;2024-01-25T17:12:34;8.80;90.00
9668;DHT22;4872;48.316;10.650;2024-01-25T17:15:01;8.70;90.10
9668;DHT22;4872;48.316;10.650;2024-01-25T17:17:28;8.70;90.20
9668;DHT22;4872;48.316;10.650;2024-01-25T17:19:55;8.70;90.50
9668;DHT22;4872;48.316;10.650;2024-01-25T17:22:21;8.60;90.50
9668;DHT22;4872;48.316;10.650;2024-01-25T17:25:08;8.90;90.80
9668;DHT22;4872;48.316;10.650;2024-01-25T17:27:41;8.70;90.90
9668;DHT22;4872;48.316;10.650;2024-01-25T17:30:38;8.70;90.90
9668;DHT22;4872;48.316;10.650;2024-01-25T19:13:04;8.50;99.90
9668;DHT22;4872;48.316;10.650;2024-01-25T19:54:36;8.50;99.90
9668;DHT22;4872;48.316;10.650;2024-01-25T20:37:37;8.60;99.90
9668;DHT22;4872;48.316;10.650;2024-01-25T22:29:03;8.80;99.90
9668;DHT22;4872;48.316;10.650;2024-01-25T22:31:30;8.80;99.90
9668;DHT22;4872;48.316;10.650;2024-01-25T22:33:57;8.80;99.90
9668;DHT22;4872;48.316;10.650;2024-01-25T22:36:24;8.90;99.90
9668;DHT22;4872;48.316;10.650;2024-01-25T22:38:52;8.90;99.90
9668;DHT22;4872;48.316;10.650;2024-01-25T22:41:19;9.00;99.90
9668;DHT22;4872;48.316;10.650;2024-01-25T22:43:46;8.90;99.90
9668;DHT22;4872;48.316;10.650;2024-01-25T22:46:14;8.80;99.90
9668;DHT22;4872;48.316;10.650;2024-01-25T22:48:41;8.80;99.90
9668;DHT22;4872;48.316;10.650;2024-01-25T22:51:07;8.80;99.90
9668;DHT22;4872;48.316;10.650;2024-01-25T22:53:34;8.80;99.90
9668;DHT22;4872;48.316;10.650;2024-01-25T22:56:02;8.80;99.90
9668;DHT22;4872;48.316;10.650;2024-01-25T22:58:29;8.80;99.90
9668;DHT22;4872;48.316;10.650;2024-01-25T23:00:56;9.00;99.90
9668;DHT22;4872;48.316;10.650;2024-01-25T23:03:24;8.90;99.90
9668;DHT22;4872;48.316;10.650;2024-01-25T23:05:51;8.90;99.90
9668;DHT22;4872;48.316;10.650;2024-01-25T23:08:18;8.80;99.90
9668;DHT22;4872;48.316;10.650;2024-01-25T23:10:45;8.90;99.90
9668;DHT22;4872;48.316;10.650;2024-01-25T23:13:11;8.70;99.90
9668;DHT22;4872;48.316;10.650;2024-01-25T23:15:39;8.90;99.90
9668;DHT22;4872;48.316;10.650;2024-01-25T23:18:05;8.70;99.90
9668;DHT22;4872;48.316;10.650;2024-01-25T23:20:34;8.70;99.90
9668;DHT22;4872;48.316;10.650;2024-01-25T23:23:00;8.80;99.90
9668;DHT22;4872;48.316;10.650;2024-01-25T23:25:27;8.50;99.90
9668;DHT22;4872;48.316;10.650;2024-01-25T23:27:54;8.70;99.90
